createdAt,value
2018-06-20T00:09:51.923Z,19.15
2018-06-20T00:19:51.894Z,19.15
2018-06-20T00:29:51.914Z,19.15
2018-06-20T00:39:51.870Z,19.25
2018-06-20T00:49:51.886Z,19.29
2018-06-20T00:59:51.906Z,19.28
2018-06-20T01:09:51.892Z,19.24
2018-06-20T01:19:51.864Z,19.32
2018-06-20T01:29:51.895Z,19.24
2018-06-20T01:39:51.867Z,19.23
2018-06-20T01:49:52.009Z,19.21
2018-06-20T01:59:51.941Z,19.06
2018-06-20T02:09:51.893Z,19.21
2018-06-20T02:19:51.958Z,19.21
2018-06-20T02:29:51.873Z,19.21
2018-06-20T02:39:51.948Z,19.08
2018-06-20T02:49:51.929Z,19.11
2018-06-20T02:59:51.958Z,19.14
2018-06-20T03:09:51.892Z,19.2
2018-06-20T03:19:52.918Z,19.21
2018-06-20T03:29:51.989Z,19.17
2018-06-20T03:39:51.954Z,19.18
2018-06-20T03:49:51.994Z,19.23
2018-06-20T03:59:52.035Z,19.31
2018-06-20T04:09:51.904Z,19.25
2018-06-20T04:19:52.025Z,19.39
2018-06-20T04:29:51.935Z,19.53
2018-06-20T04:39:51.881Z,19.8
2018-06-20T04:49:51.872Z,20.08
2018-06-20T04:59:51.935Z,20.43
2018-06-20T05:09:51.907Z,20.93
2018-06-20T05:19:52.105Z,21.54
2018-06-20T05:29:51.932Z,22.12
2018-06-20T05:39:51.963Z,22.47
2018-06-20T05:49:51.991Z,23.14
2018-06-20T05:59:51.897Z,23.14
2018-06-20T06:09:51.888Z,22.59
2018-06-20T06:19:52.011Z,22.59
2018-06-20T06:29:52.019Z,22.78
2018-06-20T06:39:52.131Z,22.53
2018-06-20T06:49:52.061Z,22.46
2018-06-20T06:59:51.987Z,22.71
2018-06-20T07:09:52.002Z,23.61
2018-06-20T07:19:51.936Z,25.28
2018-06-20T07:29:52.047Z,25.37
2018-06-20T07:39:51.972Z,26.94
2018-06-20T07:49:51.955Z,25.99
2018-06-20T07:59:51.976Z,24.44
2018-06-20T08:09:51.927Z,25.28
2018-06-20T08:19:51.973Z,26.46
2018-06-20T08:29:51.968Z,26.49
2018-06-20T08:39:51.957Z,26.15
2018-06-20T08:49:51.927Z,25.15
2018-06-20T08:59:51.941Z,25.56
2018-06-20T09:09:51.918Z,24.87
2018-06-20T09:19:51.956Z,25.89
2018-06-20T09:29:51.941Z,26.73
2018-06-20T09:39:51.978Z,25.82
2018-06-20T09:49:51.973Z,26.8
2018-06-20T09:59:52.974Z,26.59
2018-06-20T10:09:51.975Z,26.98
2018-06-20T10:19:52.402Z,27.59
2018-06-20T10:29:52.030Z,26.95
2018-06-20T10:39:52.048Z,27.23
2018-06-20T10:49:52.005Z,27.06
2018-06-20T10:59:52.012Z,27.62
2018-06-20T11:09:51.980Z,27.19
2018-06-20T11:19:52.073Z,27.24
2018-06-20T11:29:52.115Z,27.36
2018-06-20T11:39:52.086Z,27.29
2018-06-20T11:49:52.205Z,27.41
2018-06-20T11:59:52.065Z,27.33
2018-06-20T12:09:51.983Z,27.26
2018-06-20T12:19:52.029Z,27.48
2018-06-20T12:29:52.009Z,27.66
2018-06-20T12:39:52.003Z,27.32
2018-06-20T12:49:52.038Z,27.29
2018-06-20T12:59:52.066Z,27.64
2018-06-20T13:09:52.009Z,27.77
2018-06-20T13:19:52.065Z,27.79
2018-06-20T13:29:52.045Z,28.03
2018-06-20T13:39:52.194Z,28.1
2018-06-20T13:49:52.026Z,28.43
2018-06-20T13:59:52.039Z,28.16
2018-06-20T14:09:52.033Z,28.21
2018-06-20T14:19:52.140Z,27.96
2018-06-20T14:29:52.168Z,28.06
2018-06-20T14:39:52.084Z,27.95
2018-06-20T14:49:52.130Z,28.11
2018-06-20T14:59:52.081Z,27.94
2018-06-20T15:09:52.092Z,27.91
2018-06-20T15:19:52.062Z,28.01
2018-06-20T15:29:52.041Z,27.98
2018-06-20T15:39:52.083Z,27.89
2018-06-20T15:49:52.125Z,27.79
2018-06-20T15:59:52.113Z,27.82
2018-06-20T16:09:52.089Z,27.91
2018-06-20T16:19:52.091Z,27.88
2018-06-20T16:29:52.423Z,27.67
2018-06-20T16:39:52.076Z,27.54
2018-06-20T16:49:52.085Z,27.42
2018-06-20T16:59:52.092Z,27.43
2018-06-20T17:09:52.105Z,27.17
2018-06-20T17:19:52.376Z,27.19
2018-06-20T17:29:52.077Z,27.01
2018-06-20T17:39:52.107Z,26.73
2018-06-20T17:49:52.093Z,26.47
2018-06-20T17:59:52.219Z,26.27
2018-06-20T18:09:52.070Z,26.09
2018-06-20T18:19:52.379Z,25.93
2018-06-20T18:29:52.144Z,25.65
2018-06-20T18:39:52.187Z,25.43
2018-06-20T18:49:52.248Z,25
2018-06-20T18:59:52.109Z,24.41
2018-06-20T19:09:52.194Z,24.01
2018-06-20T19:19:52.187Z,23.68
2018-06-20T19:29:52.091Z,23.26
2018-06-20T19:39:52.153Z,22.71
2018-06-20T19:49:52.227Z,22.22
2018-06-20T19:59:52.130Z,21.94
2018-06-20T20:09:52.266Z,21.48
2018-06-20T20:19:52.180Z,20.99
2018-06-20T20:29:52.438Z,20.69
2018-06-20T20:39:52.943Z,20.12
2018-06-20T20:49:52.125Z,19.88
2018-06-20T20:59:52.099Z,19.65
2018-06-20T21:09:53.062Z,19.48
2018-06-20T21:19:52.178Z,19.17
2018-06-20T21:29:52.087Z,18.9
2018-06-20T21:39:52.120Z,18.79
2018-06-20T21:49:52.135Z,18.61
2018-06-20T21:59:52.120Z,18.4
2018-06-20T22:11:19.638Z,18.44
2018-06-20T22:21:19.659Z,18.39
2018-06-20T22:31:19.690Z,18.12
2018-06-20T22:41:19.698Z,17.94
2018-06-20T22:51:19.791Z,17.76
2018-06-20T23:01:19.937Z,17.64
2018-06-20T23:11:19.720Z,17.66
2018-06-20T23:21:19.679Z,17.5
2018-06-20T23:31:19.697Z,17.28
2018-06-20T23:41:19.710Z,17.13
2018-06-20T23:51:19.751Z,16.95
